sensor_id;sensor_type;location;lat;lon;timestamp;temperature;humidity
55151;DHT22;41041;43.162;20.538;2023-05-10T09:39:32;461.10;2380.80
55151;DHT22;41041;43.162;20.538;2023-05-10T09:42:05;460.90;2380.80
55151;DHT22;41041;43.162;20.538;2023-05-10T09:44:32;461.00;2380.80
55151;DHT22;41041;43.162;20.538;2023-05-10T09:49:25;461.40;2380.80
55151;DHT22;41041;43.162;20.538;2023-05-10T14:09:03;461.10;2380.80
55151;DHT22;41041;43.162;20.538;2023-05-10T14:11:29;461.10;2380.80
55151;DHT22;41041;43.162;20.538;2023-05-10T16:27:47;436.00;2355.20
55151;DHT22;41041;43.162;20.538;2023-05-10T16:30:31;435.80;2355.20
55151;DHT22;41041;43.162;20.538;2023-05-10T16:33:00;435.80;2355.20
55151;DHT22;41041;43.162;20.538;2023-05-10T16:45:14;435.90;2355.20
55151;DHT22;41041;43.162;20.538;2023-05-10T16:47:43;435.70;2355.20
55151;DHT22;41041;43.162;20.538;2023-05-10T16:50:10;435.70;2355.20
55151;DHT22;41041;43.162;20.538;2023-05-10T16:52:36;435.80;2355.20
55151;DHT22;41041;43.162;20.538;2023-05-10T16:57:31;435.80;2355.20
55151;DHT22;41041;43.162;20.538;2023-05-10T16:59:57;435.70;2355.20
55151;DHT22;41041;43.162;20.538;2023-05-10T17:02:23;435.50;2355.20
55151;DHT22;41041;43.162;20.538;2023-05-10T17:04:49;435.50;2355.20
55151;DHT22;41041;43.162;20.538;2023-05-10T17:07:24;435.50;2355.20
55151;DHT22;41041;43.162;20.538;2023-05-10T17:09:53;435.40;2355.20
55151;DHT22;41041;43.162;20.538;2023-05-10T17:15:36;435.40;2355.20
55151;DHT22;41041;43.162;20.538;2023-05-10T17:18:02;435.40;2355.20
55151;DHT22;41041;43.162;20.538;2023-05-10T17:20:29;435.50;2355.20
55151;DHT22;41041;43.162;20.538;2023-05-10T17:22:55;435.40;2355.20
55151;DHT22;41041;43.162;20.538;2023-05-10T17:25:20;435.40;2355.20
55151;DHT22;41041;43.162;20.538;2023-05-10T17:27:46;435.40;2355.20
55151;DHT22;41041;43.162;20.538;2023-05-10T17:30:12;435.40;2355.20
55151;DHT22;41041;43.162;20.538;2023-05-10T17:32:38;435.40;2355.20
55151;DHT22;41041;43.162;20.538;2023-05-10T17:35:05;435.40;2355.20
55151;DHT22;41041;43.162;20.538;2023-05-10T17:37:31;435.40;2355.20
55151;DHT22;41041;43.162;20.538;2023-05-10T17:39:59;435.40;2355.20
55151;DHT22;41041;43.162;20.538;2023-05-10T17:42:25;435.40;2355.20
55151;DHT22;41041;43.162;20.538;2023-05-10T17:44:51;435.40;2355.20
55151;DHT22;41041;43.162;20.538;2023-05-10T17:47:17;435.40;2355.20
55151;DHT22;41041;43.162;20.538;2023-05-10T17:49:43;435.40;2355.20
55151;DHT22;41041;43.162;20.538;2023-05-10T17:52:09;435.40;2355.20
55151;DHT22;41041;43.162;20.538;2023-05-10T17:54:35;435.40;2355.20
55151;DHT22;41041;43.162;20.538;2023-05-10T17:57:00;435.40;2355.20
55151;DHT22;41041;43.162;20.538;2023-05-10T17:59:28;435.40;2355.20
55151;DHT22;41041;43.162;20.538;2023-05-10T18:01:53;435.40;2355.20
55151;DHT22;41041;43.162;20.538;2023-05-10T18:04:19;435.40;2355.20
55151;DHT22;41041;43.162;20.538;2023-05-10T18:06:46;435.40;2355.20
55151;DHT22;41041;43.162;20.538;2023-05-10T18:09:11;435.40;2355.20
55151;DHT22;41041;43.162;20.538;2023-05-10T18:11:37;435.40;2355.20
55151;DHT22;41041;43.162;20.538;2023-05-10T18:14:04;435.40;2355.20
55151;DHT22;41041;43.162;20.538;2023-05-10T18:16:30;435.40;2355.20
55151;DHT22;41041;43.162;20.538;2023-05-10T18:18:56;435.30;2355.20
55151;DHT22;41041;43.162;20.538;2023-05-10T18:21:22;435.20;2355.20
55151;DHT22;41041;43.162;20.538;2023-05-10T18:23:48;435.30;2355.20
55151;DHT22;41041;43.162;20.538;2023-05-10T18:26:14;435.20;2355.20
55151;DHT22;41041;43.162;20.538;2023-05-10T18:28:40;435.30;2355.20
55151;DHT22;41041;43.162;20.538;2023-05-10T18:31:06;435.30;2355.20
55151;DHT22;41041;43.162;20.538;2023-05-10T18:33:32;435.30;2355.20
55151;DHT22;41041;43.162;20.538;2023-05-10T18:35:58;435.30;2355.20
55151;DHT22;41041;43.162;20.538;2023-05-10T18:38:24;435.20;2355.20
55151;DHT22;41041;43.162;20.538;2023-05-10T18:40:50;435.40;2355.20
55151;DHT22;41041;43.162;20.538;2023-05-10T18:43:16;435.20;2355.20
55151;DHT22;41041;43.162;20.538;2023-05-10T18:45:41;435.20;2355.20
55151;DHT22;41041;43.162;20.538;2023-05-10T18:48:08;435.20;2355.20
55151;DHT22;41041;43.162;20.538;2023-05-10T18:50:35;435.30;2355.20
55151;DHT22;41041;43.162;20.538;2023-05-10T18:53:00;435.20;2355.20
55151;DHT22;41041;43.162;20.538;2023-05-10T18:55:26;435.20;2355.20
55151;DHT22;41041;43.162;20.538;2023-05-10T18:57:52;410.50;2355.20
55151;DHT22;41041;43.162;20.538;2023-05-10T19:00:18;435.30;2355.20
55151;DHT22;41041;43.162;20.538;2023-05-10T19:02:45;435.20;2355.20
55151;DHT22;41041;43.162;20.538;2023-05-10T19:05:13;435.40;2355.20
55151;DHT22;41041;43.162;20.538;2023-05-10T19:07:38;410.50;2355.20
55151;DHT22;41041;43.162;20.538;2023-05-10T19:10:11;410.50;2355.20
55151;DHT22;41041;43.162;20.538;2023-05-10T19:12:43;435.20;2355.20
55151;DHT22;41041;43.162;20.538;2023-05-10T19:27:59;435.40;2355.20
55151;DHT22;41041;43.162;20.538;2023-05-10T19:30:25;435.30;2355.20
55151;DHT22;41041;43.162;20.538;2023-05-10T19:33:10;435.30;2355.20
55151;DHT22;41041;43.162;20.538;2023-05-10T19:35:37;435.30;2355.20
55151;DHT22;41041;43.162;20.538;2023-05-10T19:38:03;410.50;2355.20
55151;DHT22;41041;43.162;20.538;2023-05-10T19:47:52;435.30;2355.20
55151;DHT22;41041;43.162;20.538;2023-05-10T19:50:18;435.20;2355.20
